Atwell, West Virginia
Current Conditions -  °F | °C
As of 12:35 AM on Friday 28 Nov 2014 (Local Time) from KJFZ Reporting Station
Light Snow Light Snow  
Wind Chill: -8°   Ceiling: 1300
Heat Index: -3°   Visibility: 10mi
Dew Point: -5°   Wind: 12mph
Humidity: 82%   Direction: 310°NW
Pressure: 30.24"   Gusts: NA
Location:  37.3433°N, 81.7826°W
Report Text: KJFZ 280535Z AUTO 31010KT 10SM -SN BKN013 BKN027 OVC038 M03/M05 A3024 RMK AO2 T10271054
Loading
Personal Weather Stations






























Interactive Weather Map New forecast layout! Learn more

10-Day Weather Forecast

Advertisements
Track Severe Weather on mobile